Welcome to Des Moines Iowa Weather. I am an independent private personal weather station on the Northwest Side of Des Moines, Iowa. Just East of Windsor Heights and just West of Glendale . This site is also mobile friendly.

There are no active watches, warnings or advisories


Visit our other weather sites:

Historical Data

Weather Station Setup



Weather Underground History page Text

Daily Summary for April 24, 2017 Units:  English    Metric   Both
« Previous Day
Next Day »
Daily Weekly Monthly Yearly Custom
  High: Low: Average:
Temperature: 75.6 °F 49.1 °F 62.3 °F
Dew Point: 39.0 °F 32.0 °F 35.5 °F
Humidity: 60 % 21 % 40 %
Wind Speed: 6.0 mph 0.0 mph 1.3 mph
Wind Gust: 15.0 mph - -
Wind:- - South
Pressure: 29.92 in 29.54 in -
Precipitation: 0.00 in    
Historical Graphs
 
 
Tabular Data for April 24, 2017
Time Temperature Dew Point Pressure Wind Wind Speed Wind Gust Humidity Rainfall Rate (Hourly)
00:00 53.8 °F 35.0 °F 29.92 in Calm     50 % 0.00 in
00:15 53.3 °F 35.0 °F 29.92 in Calm     51 % 0.00 in
00:30 53.1 °F 36.0 °F 29.91 in Calm   3.0 mph 52 % 0.00 in
00:45 53.3 °F 35.0 °F 29.91 in SE 1.0 mph 4.0 mph 51 % 0.00 in
01:00 53.6 °F 35.0 °F 29.91 in Calm   4.0 mph 50 % 0.00 in
01:15 53.8 °F 36.0 °F 29.91 in Calm   1.0 mph 52 % 0.00 in
01:30 53.5 °F 36.0 °F 29.90 in Calm   1.0 mph 51 % 0.00 in
01:45 53.1 °F 36.0 °F 29.90 in Calm     52 % 0.00 in
02:00 52.6 °F 36.0 °F 29.90 in Calm   1.0 mph 53 % 0.00 in
02:15 52.2 °F 35.0 °F 29.90 in Calm     53 % 0.00 in
02:30 51.8 °F 35.0 °F 29.89 in Calm   1.0 mph 53 % 0.00 in
02:45 51.7 °F 35.0 °F 29.89 in Calm   1.0 mph 53 % 0.00 in
03:00 51.7 °F 35.0 °F 29.88 in Calm     53 % 0.00 in
03:15 51.4 °F 35.0 °F 29.88 in Calm     54 % 0.00 in
03:30 50.9 °F 35.0 °F 29.88 in Calm     55 % 0.00 in
03:45 50.4 °F 35.0 °F 29.87 in Calm     55 % 0.00 in
04:00 49.8 °F 34.0 °F 29.86 in Calm     56 % 0.00 in
04:15 49.4 °F 35.0 °F 29.86 in Calm     57 % 0.00 in
04:30 49.2 °F 35.0 °F 29.86 in Calm     59 % 0.00 in
04:45 49.1 °F 36.0 °F 29.86 in Calm     60 % 0.00 in
05:00 49.4 °F 35.0 °F 29.85 in Calm   1.0 mph 59 % 0.00 in
05:15 49.7 °F 36.0 °F 29.84 in Calm   1.0 mph 59 % 0.00 in
05:30 49.8 °F 35.0 °F 29.84 in Calm   3.0 mph 58 % 0.00 in
05:45 49.8 °F 35.0 °F 29.84 in Calm   3.0 mph 58 % 0.00 in
06:00 49.7 °F 35.0 °F 29.84 in Calm   2.0 mph 58 % 0.00 in
06:15 49.5 °F 36.0 °F 29.85 in Calm   1.0 mph 59 % 0.00 in
06:30 49.3 °F 36.0 °F 29.84 in Calm   2.0 mph 60 % 0.00 in
06:45 49.3 °F 36.0 °F 29.84 in Calm   2.0 mph 60 % 0.00 in
07:01 49.6 °F 36.0 °F 29.84 in SW 2.0 mph 4.0 mph 59 % 0.00 in
07:16 50.0 °F 36.0 °F 29.84 in Calm   4.0 mph 59 % 0.00 in
07:31 50.5 °F 36.0 °F 29.84 in Calm   5.0 mph 58 % 0.00 in
07:46 51.1 °F 37.0 °F 29.84 in South 3.0 mph 5.0 mph 58 % 0.00 in
08:00 51.4 °F 37.0 °F 29.84 in SW 1.0 mph 6.0 mph 59 % 0.00 in
08:16 52.3 °F 38.0 °F 29.84 in SW 2.0 mph 4.0 mph 58 % 0.00 in
08:31 53.6 °F 39.0 °F 29.83 in SSE 4.0 mph 6.0 mph 58 % 0.00 in
08:46 54.9 °F 38.0 °F 29.83 in SSW 3.0 mph 5.0 mph 54 % 0.00 in
09:01 56.6 °F 39.0 °F 29.82 in SW 2.0 mph 7.0 mph 52 % 0.00 in
09:16 58.1 °F 39.0 °F 29.81 in South 1.0 mph 8.0 mph 50 % 0.00 in
09:31 59.8 °F 39.0 °F 29.80 in SSE 2.0 mph 9.0 mph 47 % 0.00 in
09:46 61.6 °F 39.0 °F 29.79 in Calm   9.0 mph 43 % 0.00 in
10:01 63.0 °F 39.0 °F 29.78 in SSW 5.0 mph 8.0 mph 42 % 0.00 in
10:16 64.3 °F 34.0 °F 29.78 in SSW 3.0 mph 14.0 mph 33 % 0.00 in
10:31 65.2 °F 35.0 °F 29.78 in SE 4.0 mph 12.0 mph 33 % 0.00 in
10:46 66.0 °F 36.0 °F 29.77 in SSE 2.0 mph 11.0 mph 33 % 0.00 in
11:02 66.9 °F 35.0 °F 29.76 in South 6.0 mph 15.0 mph 31 % 0.00 in
11:17 67.7 °F 33.0 °F 29.75 in SSW 3.0 mph 12.0 mph 28 % 0.00 in
11:32 69.2 °F 35.0 °F 29.75 in WSW 4.0 mph 9.0 mph 28 % 0.00 in
11:47 70.3 °F 34.0 °F 29.74 in WNW 2.0 mph 9.0 mph 26 % 0.00 in
12:02 71.0 °F 34.0 °F 29.74 in South 3.0 mph 15.0 mph 26 % 0.00 in
12:17 72.0 °F 36.0 °F 29.73 in SE 4.0 mph 11.0 mph 27 % 0.00 in
12:32 71.8 °F 37.0 °F 29.72 in ENE 4.0 mph 7.0 mph 28 % 0.00 in
12:47 71.8 °F 37.0 °F 29.71 in East 4.0 mph 10.0 mph 28 % 0.00 in
13:02 70.9 °F 35.0 °F 29.70 in WSW 4.0 mph 9.0 mph 27 % 0.00 in
13:17 71.9 °F 35.0 °F 29.68 in South 3.0 mph 8.0 mph 26 % 0.00 in
13:32 71.8 °F 35.0 °F 29.67 in South 4.0 mph 15.0 mph 26 % 0.00 in
13:47 73.2 °F 35.0 °F 29.67 in SE 5.0 mph 12.0 mph 25 % 0.00 in
14:02 74.3 °F 36.0 °F 29.66 in SW 3.0 mph 10.0 mph 25 % 0.00 in
14:17 73.8 °F 36.0 °F 29.65 in Calm   11.0 mph 25 % 0.00 in
14:32 75.2 °F 36.0 °F 29.63 in Calm   11.0 mph 24 % 0.00 in
14:47 74.7 °F 37.0 °F 29.61 in SE 2.0 mph 12.0 mph 25 % 0.00 in
15:02 74.2 °F 34.0 °F 29.61 in SSE 6.0 mph 11.0 mph 23 % 0.00 in
15:17 75.6 °F 35.0 °F 29.60 in South 5.0 mph 15.0 mph 23 % 0.00 in
15:32 75.1 °F 34.0 °F 29.58 in Calm   13.0 mph 22 % 0.00 in
15:48 74.9 °F 37.0 °F 29.57 in East 4.0 mph 11.0 mph 25 % 0.00 in
16:02 74.4 °F 32.0 °F 29.58 in SE 1.0 mph 11.0 mph 21 % 0.00 in
16:18 72.8 °F 33.0 °F 29.58 in South 2.0 mph 7.0 mph 23 % 0.00 in
16:32 73.2 °F 34.0 °F 29.57 in Calm   6.0 mph 24 % 0.00 in
16:48 73.5 °F 33.0 °F 29.56 in SE 1.0 mph 10.0 mph 23 % 0.00 in
17:03 73.8 °F 33.0 °F 29.56 in SSE 2.0 mph 14.0 mph 22 % 0.00 in
17:18 73.8 °F 34.0 °F 29.55 in WSW 2.0 mph 7.0 mph 23 % 0.00 in
17:33 73.8 °F 33.0 °F 29.55 in NW 4.0 mph 7.0 mph 22 % 0.00 in
17:48 73.4 °F 33.0 °F 29.55 in SSE 2.0 mph 9.0 mph 23 % 0.00 in
18:03 73.0 °F 34.0 °F 29.55 in East 1.0 mph 7.0 mph 24 % 0.00 in
18:18 72.7 °F 33.0 °F 29.55 in SSE 2.0 mph 9.0 mph 23 % 0.00 in
18:33 72.0 °F 32.0 °F 29.54 in Calm   7.0 mph 23 % 0.00 in
18:48 71.6 °F 34.0 °F 29.55 in Calm   11.0 mph 25 % 0.00 in
19:03 71.5 °F 35.0 °F 29.54 in SW 2.0 mph 8.0 mph 26 % 0.00 in
19:18 71.3 °F 35.0 °F 29.55 in Calm   6.0 mph 26 % 0.00 in
19:33 70.8 °F 35.0 °F 29.55 in Calm   4.0 mph 27 % 0.00 in
19:48 70.0 °F 34.0 °F 29.54 in SSW 1.0 mph 5.0 mph 27 % 0.00 in
20:03 69.1 °F 35.0 °F 29.55 in Calm   2.0 mph 29 % 0.00 in
20:18 68.2 °F 36.0 °F 29.55 in Calm     30 % 0.00 in
20:33 67.0 °F 35.0 °F 29.55 in Calm     31 % 0.00 in
20:48 65.7 °F 35.0 °F 29.55 in Calm     32 % 0.00 in
21:03 64.6 °F 35.0 °F 29.56 in Calm     34 % 0.00 in
21:18 63.5 °F 36.0 °F 29.56 in Calm     36 % 0.00 in
21:33 62.6 °F 36.0 °F 29.56 in Calm     37 % 0.00 in
21:48 61.8 °F 36.0 °F 29.55 in Calm     38 % 0.00 in
22:03 61.4 °F 36.0 °F 29.55 in Calm   1.0 mph 39 % 0.00 in
22:18 61.9 °F 37.0 °F 29.55 in South 2.0 mph 3.0 mph 40 % 0.00 in
22:33 62.8 °F 37.0 °F 29.55 in Calm   3.0 mph 38 % 0.00 in
22:48 63.5 °F 37.0 °F 29.55 in Calm   2.0 mph 38 % 0.00 in
23:03 63.8 °F 38.0 °F 29.54 in Calm   3.0 mph 38 % 0.00 in
23:18 63.8 °F 38.0 °F 29.54 in Calm   2.0 mph 38 % 0.00 in
23:33 63.7 °F 38.0 °F 29.54 in Calm   1.0 mph 39 % 0.00 in
23:48 63.5 °F 37.0 °F 29.54 in Calm   1.0 mph 38 % 0.00 in
Des Moines Weather and Climate
Compliments of Weather Underground - 3 mb

Script developed by  Jim McMurry - jmcmurry@mwt.net Adapted for the template by  Wim van der Kuil - Leuven-Template.eu

You find our weather info also at:

Weather Underground

Equipment we use:

Weather-station
Davis VP2 Plus

Weather-program
Davis Weatherlink.Com

Weather-server
iMac (Retina 4K, 21.5-inch, Late 2015)

Provider
Hostmonster.com

Davis VP2 Plus

Davis Weatherlink.Com

iMac (Retina 4K, 21.5-inch, Late 2015)

Hostmonster.com